Weather at JL Mayfield Ranch Airport

Public forecast

Using degrees Fahrenheit for public forecast. Weather courtesy of forecast.io.

Closest aviation weather report (METAR) to JL Mayfield Ranch Airport

Closest report is Edwards County Airport, 23.1 nm (42.7 km) ESE. Retrieved 2022/06/24 22:35 UTC (15 minutes ago):

KECU 242235Z AUTO 16010G19KT 10SM CLR 36/09 A2997 RMK AO2

Closest aviation forecast (TAF) to JL Mayfield Ranch Airport

Closest forecast is Sonora Municipal Airport, 26.1 nm (48.4 km) NNW. Retrieved 2022/06/24 18:45 UTC (4 hours ago):

TAF KSOA 241742Z 2418/2518 17010G16KT P6SM SKC FM242300 17006KT P6SM SKC